createdAt,value
2022-12-25T00:00:22.431Z,4.80
2022-12-25T00:02:50.612Z,4.93
2022-12-25T00:05:18.884Z,4.30
2022-12-25T00:07:46.834Z,6.47
2022-12-25T00:10:14.815Z,7.13
2022-12-25T00:12:44.201Z,7.60
2022-12-25T00:15:12.325Z,9.70
2022-12-25T00:17:40.267Z,8.60
2022-12-25T00:20:09.708Z,9.20
2022-12-25T00:22:40.296Z,8.27
2022-12-25T00:25:08.846Z,7.80
2022-12-25T00:27:37.762Z,7.83
2022-12-25T00:30:08.793Z,8.30
2022-12-25T00:32:37.710Z,7.97
2022-12-25T00:35:06.443Z,9.07
2022-12-25T00:37:34.428Z,7.93
2022-12-25T00:40:03.163Z,7.80
2022-12-25T00:42:31.214Z,9.33
2022-12-25T00:45:01.310Z,8.73
2022-12-25T00:47:30.941Z,8.90
2022-12-25T00:49:58.918Z,8.10
2022-12-25T00:52:26.810Z,8.77
2022-12-25T00:54:54.709Z,8.57
2022-12-25T00:57:22.700Z,8.30
2022-12-25T00:59:50.582Z,7.40
2022-12-25T01:02:24.488Z,8.27
2022-12-25T01:04:55.663Z,8.87
2022-12-25T01:07:25.084Z,9.30
2022-12-25T01:10:10.453Z,8.20
2022-12-25T01:12:40.740Z,8.27
2022-12-25T01:15:10.565Z,8.73
2022-12-25T01:17:38.597Z,8.07
2022-12-25T01:20:09.231Z,7.80
2022-12-25T01:22:37.277Z,7.00
2022-12-25T01:25:06.430Z,7.63
2022-12-25T01:27:34.733Z,8.47
2022-12-25T01:30:03.257Z,7.90
2022-12-25T01:32:31.221Z,7.97
2022-12-25T01:34:59.261Z,7.80
2022-12-25T01:37:28.577Z,7.50
2022-12-25T01:39:56.524Z,7.47
2022-12-25T01:42:24.742Z,7.57
2022-12-25T01:45:37.733Z,7.57
2022-12-25T01:48:11.616Z,8.10
2022-12-25T01:50:42.526Z,6.50
2022-12-25T01:53:12.648Z,6.97
2022-12-25T01:55:43.798Z,7.13
2022-12-25T01:58:11.757Z,7.77
2022-12-25T02:00:39.778Z,7.33
2022-12-25T02:03:08.765Z,7.23
2022-12-25T02:05:37.010Z,6.90
2022-12-25T02:08:09.721Z,7.70
2022-12-25T02:10:39.806Z,7.60
2022-12-25T02:13:08.921Z,8.07
2022-12-25T02:15:44.997Z,7.33
2022-12-25T02:18:22.072Z,7.50
2022-12-25T02:21:16.643Z,6.97
2022-12-25T02:24:21.372Z,7.83
2022-12-25T02:27:10.051Z,7.43
2022-12-25T02:29:47.721Z,7.07
2022-12-25T02:32:21.825Z,6.57
2022-12-25T02:34:53.774Z,6.83
2022-12-25T02:37:29.137Z,6.97
2022-12-25T02:40:02.996Z,6.80
2022-12-25T02:43:00.071Z,6.93
2022-12-25T02:45:52.027Z,6.90
2022-12-25T02:48:40.622Z,7.67
2022-12-25T02:51:30.677Z,7.60
2022-12-25T02:54:18.760Z,6.83
2022-12-25T02:57:07.806Z,7.73
2022-12-25T02:59:57.085Z,6.90
2022-12-25T03:02:46.751Z,6.43
2022-12-25T03:05:38.210Z,6.20
2022-12-25T03:08:11.872Z,6.97
2022-12-25T03:11:00.254Z,6.20
2022-12-25T03:13:32.498Z,5.57
2022-12-25T03:16:18.138Z,6.67
2022-12-25T03:18:48.993Z,7.47
2022-12-25T03:21:34.246Z,5.90
2022-12-25T03:24:20.860Z,6.77
2022-12-25T03:26:58.159Z,5.73
2022-12-25T03:29:52.317Z,7.60
2022-12-25T03:32:27.562Z,5.97
2022-12-25T03:35:23.304Z,5.80
2022-12-25T03:38:22.597Z,6.20
2022-12-25T03:41:19.879Z,6.50
2022-12-25T03:44:12.514Z,5.80
2022-12-25T03:47:06.262Z,6.37
2022-12-25T03:49:59.516Z,6.00
2022-12-25T03:52:48.912Z,6.83
2022-12-25T03:55:36.816Z,6.00
2022-12-25T03:58:22.367Z,5.67
2022-12-25T04:01:07.829Z,5.80
2022-12-25T04:03:53.503Z,5.73
2022-12-25T04:06:39.179Z,6.37
2022-12-25T04:09:26.101Z,5.80
2022-12-25T04:12:11.575Z,6.20
2022-12-25T04:14:58.229Z,5.93
2022-12-25T04:17:43.818Z,5.63
2022-12-25T04:20:30.157Z,5.97
2022-12-25T04:23:15.432Z,5.50
2022-12-25T04:26:02.082Z,6.40
2022-12-25T04:28:47.462Z,6.00
2022-12-25T04:31:33.357Z,6.33
2022-12-25T04:34:18.733Z,6.13
2022-12-25T04:36:46.875Z,6.00
2022-12-25T04:39:14.862Z,6.07
2022-12-25T04:41:44.297Z,5.50
2022-12-25T04:44:12.245Z,6.10
2022-12-25T04:46:40.269Z,6.17
2022-12-25T04:49:08.258Z,6.00
2022-12-25T04:51:38.076Z,6.43
2022-12-25T04:54:06.233Z,6.43
2022-12-25T04:56:38.507Z,6.07
2022-12-25T04:59:11.036Z,5.50
2022-12-25T05:01:39.192Z,5.83
2022-12-25T05:04:07.227Z,6.13
2022-12-25T05:06:35.188Z,6.03
2022-12-25T05:09:03.253Z,6.97
2022-12-25T05:11:31.170Z,6.03
2022-12-25T05:13:59.370Z,6.40
2022-12-25T05:16:28.749Z,6.00
2022-12-25T05:18:56.707Z,5.80
2022-12-25T05:21:25.041Z,6.70
2022-12-25T05:23:53.852Z,6.13
2022-12-25T05:26:24.028Z,6.07
2022-12-25T05:28:52.402Z,6.53
2022-12-25T05:31:21.360Z,6.10
2022-12-25T05:33:52.378Z,6.40
2022-12-25T05:36:20.812Z,5.93
2022-12-25T05:38:48.822Z,5.73
2022-12-25T05:41:16.757Z,5.90
2022-12-25T05:43:44.746Z,6.00
2022-12-25T05:46:14.069Z,6.27
2022-12-25T05:48:42.257Z,6.23
2022-12-25T05:51:13.943Z,5.90
2022-12-25T05:53:43.104Z,5.87
2022-12-25T05:56:11.457Z,5.60
2022-12-25T05:58:40.817Z,5.60
2022-12-25T06:01:13.330Z,5.23
2022-12-25T06:03:41.362Z,6.13
2022-12-25T06:06:10.886Z,5.50
2022-12-25T06:08:38.962Z,5.90
2022-12-25T06:11:09.328Z,6.37
2022-12-25T06:13:37.656Z,6.10
2022-12-25T06:16:06.640Z,6.10
2022-12-25T06:18:36.685Z,6.80
2022-12-25T06:21:08.240Z,6.50
2022-12-25T06:23:38.321Z,6.53
2022-12-25T06:26:07.061Z,7.20
2022-12-25T06:28:35.008Z,6.63
2022-12-25T06:31:07.594Z,6.37
2022-12-25T06:33:35.973Z,6.23
2022-12-25T06:36:07.249Z,6.63
2022-12-25T06:38:35.710Z,6.10
2022-12-25T06:41:10.353Z,6.40
2022-12-25T06:43:38.741Z,6.93
2022-12-25T06:46:09.532Z,6.97
2022-12-25T06:48:38.545Z,6.60
2022-12-25T06:51:07.635Z,5.80
2022-12-25T06:53:40.202Z,6.37
2022-12-25T06:56:15.315Z,6.70
2022-12-25T06:58:44.372Z,6.23
2022-12-25T07:01:18.192Z,6.63
2022-12-25T07:03:47.979Z,6.43
2022-12-25T07:06:16.123Z,6.97
2022-12-25T07:08:44.196Z,7.30
2022-12-25T07:11:13.818Z,6.47
2022-12-25T07:13:41.863Z,7.27
2022-12-25T07:16:11.455Z,7.00
2022-12-25T07:18:40.110Z,6.70
2022-12-25T07:21:09.163Z,7.43
2022-12-25T07:23:37.223Z,6.87
2022-12-25T07:26:05.288Z,7.23
2022-12-25T07:28:36.126Z,7.90
2022-12-25T07:31:05.200Z,8.27
2022-12-25T07:33:33.859Z,8.67
2022-12-25T07:36:02.222Z,7.63
2022-12-25T07:38:30.456Z,8.80
2022-12-25T07:40:58.736Z,10.10
2022-12-25T07:43:26.686Z,8.03
2022-12-25T07:46:00.867Z,8.40
2022-12-25T07:48:29.537Z,8.30
2022-12-25T07:50:59.318Z,8.47
2022-12-25T07:53:27.837Z,8.03
2022-12-25T07:56:00.860Z,7.63
2022-12-25T07:58:29.615Z,7.27
2022-12-25T08:01:05.539Z,8.00
2022-12-25T08:03:34.728Z,8.60
2022-12-25T08:06:03.570Z,8.97
2022-12-25T08:08:31.940Z,8.27
2022-12-25T08:10:59.970Z,8.50
2022-12-25T08:13:30.735Z,9.10
2022-12-25T08:15:59.173Z,8.87
2022-12-25T08:18:32.367Z,8.30
2022-12-25T08:21:03.707Z,9.47
2022-12-25T08:23:31.897Z,7.77
2022-12-25T08:26:05.135Z,7.80
2022-12-25T08:28:35.211Z,8.43
2022-12-25T08:31:08.164Z,8.83
2022-12-25T08:33:37.955Z,8.63
2022-12-25T08:36:08.007Z,8.90
2022-12-25T08:38:36.247Z,7.63
2022-12-25T08:41:04.542Z,8.00
2022-12-25T08:43:32.697Z,8.60
2022-12-25T08:46:00.954Z,7.63
2022-12-25T08:48:30.025Z,7.40
2022-12-25T08:50:59.549Z,7.93
2022-12-25T08:53:27.497Z,7.97
2022-12-25T08:55:59.575Z,7.80
2022-12-25T08:58:28.013Z,7.40
2022-12-25T09:00:56.079Z,7.07
2022-12-25T09:03:24.663Z,7.47
2022-12-25T09:05:54.227Z,8.87
2022-12-25T09:08:23.613Z,7.50
2022-12-25T09:10:51.645Z,8.33
2022-12-25T09:13:19.589Z,7.47
2022-12-25T09:15:47.614Z,7.80
2022-12-25T09:18:15.598Z,6.87
2022-12-25T09:20:43.595Z,6.73
2022-12-25T09:23:14.007Z,7.57
2022-12-25T09:25:43.861Z,8.00
2022-12-25T09:28:11.753Z,7.10
2022-12-25T09:30:39.781Z,7.70
2022-12-25T09:33:08.438Z,7.10
2022-12-25T09:35:36.395Z,6.23
2022-12-25T09:38:04.391Z,6.73
2022-12-25T09:40:33.679Z,6.70
2022-12-25T09:43:05.522Z,7.30
2022-12-25T09:45:37.348Z,6.60
2022-12-25T09:48:06.108Z,6.70
2022-12-25T09:50:42.521Z,6.47
2022-12-25T09:53:16.801Z,6.53
2022-12-25T09:55:49.763Z,6.87
2022-12-25T09:58:19.097Z,6.57
2022-12-25T10:00:53.894Z,7.20
2022-12-25T10:03:40.243Z,6.53
2022-12-25T10:06:13.712Z,6.57
2022-12-25T10:09:03.952Z,6.03
2022-12-25T10:11:43.797Z,6.07
2022-12-25T10:14:23.100Z,5.97
2022-12-25T10:17:04.376Z,5.97
2022-12-25T10:19:42.208Z,6.47
2022-12-25T10:22:16.562Z,5.17
2022-12-25T10:24:49.984Z,5.50
2022-12-25T10:27:21.161Z,5.23
2022-12-25T10:29:54.822Z,5.33
2022-12-25T10:32:23.135Z,5.63
2022-12-25T10:34:51.727Z,5.70
2022-12-25T10:37:20.069Z,5.17
2022-12-25T10:39:48.008Z,5.07
2022-12-25T10:42:34.852Z,5.60
2022-12-25T10:45:07.796Z,5.30
2022-12-25T10:47:42.030Z,4.97
2022-12-25T10:50:19.745Z,4.90
2022-12-25T10:52:56.608Z,5.40
2022-12-25T10:55:28.763Z,5.20
2022-12-25T10:57:58.745Z,5.10
2022-12-25T11:00:30.929Z,5.87
2022-12-25T11:02:59.771Z,5.37
2022-12-25T11:05:31.038Z,5.13
2022-12-25T11:08:00.657Z,5.23
2022-12-25T11:10:31.799Z,4.70
2022-12-25T11:13:00.915Z,5.67
2022-12-25T11:15:41.839Z,5.03
2022-12-25T11:18:21.024Z,5.43
2022-12-25T11:20:50.598Z,4.50
2022-12-25T11:23:20.676Z,4.50
2022-12-25T11:25:56.963Z,4.53
2022-12-25T11:28:26.005Z,5.57
2022-12-25T11:31:00.347Z,4.23
2022-12-25T11:33:36.067Z,5.40
2022-12-25T11:36:10.355Z,4.53
2022-12-25T11:38:38.251Z,5.30
2022-12-25T11:41:07.660Z,5.10
2022-12-25T11:43:40.940Z,5.50
2022-12-25T11:46:17.704Z,5.00
2022-12-25T11:48:55.906Z,4.30
2022-12-25T11:51:26.538Z,3.87
2022-12-25T11:53:57.102Z,4.17
2022-12-25T11:56:28.028Z,5.07
2022-12-25T11:59:01.452Z,4.57
2022-12-25T12:01:35.677Z,4.17
2022-12-25T12:04:08.204Z,4.40
2022-12-25T12:06:46.631Z,4.90
2022-12-25T12:09:27.305Z,4.30
2022-12-25T12:12:02.296Z,4.50
2022-12-25T12:14:43.400Z,4.60
2022-12-25T12:17:14.257Z,4.50
2022-12-25T12:19:42.851Z,3.87
2022-12-25T12:22:19.584Z,4.53
2022-12-25T12:24:51.065Z,4.40
2022-12-25T12:27:24.709Z,4.00
2022-12-25T12:29:54.857Z,4.10
2022-12-25T12:32:38.296Z,3.80
2022-12-25T12:35:11.225Z,4.00
2022-12-25T12:37:41.344Z,3.90
2022-12-25T12:40:27.293Z,4.23
2022-12-25T12:42:55.768Z,3.80
2022-12-25T12:45:28.039Z,3.40
2022-12-25T12:47:58.323Z,3.80
2022-12-25T12:50:32.846Z,3.47
2022-12-25T12:53:05.665Z,3.80
2022-12-25T12:55:35.808Z,3.93
2022-12-25T12:58:06.634Z,3.43
2022-12-25T13:00:44.726Z,3.43
2022-12-25T13:03:32.840Z,3.83
2022-12-25T13:06:06.286Z,3.00
2022-12-25T13:08:47.285Z,3.60
2022-12-25T13:11:20.484Z,3.50
2022-12-25T13:13:51.473Z,3.43
2022-12-25T13:16:25.847Z,3.53
2022-12-25T13:18:57.055Z,3.50
2022-12-25T13:21:27.152Z,3.30
2022-12-25T13:24:00.557Z,3.20
2022-12-25T13:26:29.371Z,4.00
2022-12-25T13:28:57.689Z,3.53
2022-12-25T13:31:27.336Z,4.13
2022-12-25T13:34:00.711Z,3.13
2022-12-25T13:36:31.134Z,2.80
2022-12-25T13:39:00.834Z,3.63
2022-12-25T13:42:02.948Z,3.30
2022-12-25T13:44:36.324Z,3.67
2022-12-25T13:47:15.929Z,3.27
2022-12-25T13:49:46.155Z,3.30
2022-12-25T13:52:16.080Z,3.23
2022-12-25T13:54:57.836Z,2.90
2022-12-25T13:57:30.000Z,2.60
2022-12-25T13:59:58.842Z,2.90
2022-12-25T14:02:32.357Z,2.90
2022-12-25T14:05:01.826Z,2.90
2022-12-25T14:07:30.086Z,2.40
2022-12-25T14:10:02.324Z,3.03
2022-12-25T14:12:32.762Z,2.57
2022-12-25T14:15:01.958Z,2.50
2022-12-25T14:17:30.127Z,2.60
2022-12-25T14:20:08.056Z,2.80
2022-12-25T14:22:38.537Z,2.73
2022-12-25T14:25:15.965Z,2.60
2022-12-25T14:27:50.341Z,2.97
2022-12-25T14:30:19.292Z,2.47
2022-12-25T14:32:51.817Z,2.30
2022-12-25T14:35:23.890Z,2.40
2022-12-25T14:37:57.441Z,3.37
2022-12-25T14:40:28.447Z,2.80
2022-12-25T14:42:57.808Z,3.00
2022-12-25T14:45:31.429Z,2.33
2022-12-25T14:48:02.857Z,2.50
2022-12-25T14:50:35.153Z,3.37
2022-12-25T14:53:03.612Z,2.93
2022-12-25T14:55:32.185Z,2.20
2022-12-25T14:58:04.432Z,2.73
2022-12-25T15:00:35.694Z,3.30
2022-12-25T15:03:07.316Z,2.60
2022-12-25T15:05:38.761Z,2.97
2022-12-25T15:08:22.210Z,3.47
2022-12-25T15:11:00.936Z,3.30
2022-12-25T15:13:30.468Z,2.80
2022-12-25T15:16:02.240Z,2.83
2022-12-25T15:18:40.156Z,2.77
2022-12-25T16:13:22.330Z,5.60
2022-12-25T16:15:50.416Z,4.97
2022-12-25T16:18:18.498Z,4.67
2022-12-25T16:20:46.831Z,4.10
2022-12-25T16:23:14.914Z,4.80
2022-12-25T16:25:43.036Z,4.80
2022-12-25T16:28:11.091Z,4.87
2022-12-25T16:30:41.806Z,4.87
2022-12-25T16:33:12.182Z,6.00
2022-12-25T16:35:40.342Z,5.47
2022-12-25T16:38:08.449Z,4.63
2022-12-25T16:40:36.540Z,5.00
2022-12-25T16:43:04.647Z,4.80
2022-12-25T16:45:32.731Z,4.43
2022-12-25T16:48:02.321Z,5.07
2022-12-25T16:50:31.552Z,4.53
2022-12-25T16:52:59.533Z,4.70
2022-12-25T16:55:30.227Z,4.20
2022-12-25T16:57:58.668Z,4.57
2022-12-25T17:00:26.844Z,5.93
2022-12-25T17:02:56.022Z,6.60
2022-12-25T17:05:25.907Z,6.43
2022-12-25T17:07:53.924Z,6.10
2022-12-25T17:10:22.534Z,6.23
2022-12-25T17:12:50.603Z,6.87
2022-12-25T17:15:18.791Z,6.90
2022-12-25T17:17:46.823Z,6.47
2022-12-25T17:20:14.955Z,6.30
2022-12-25T17:22:44.419Z,6.27
2022-12-25T17:25:12.648Z,7.40
2022-12-25T17:27:40.733Z,6.23
2022-12-25T17:30:10.208Z,6.73
2022-12-25T17:32:38.228Z,6.73
2022-12-25T17:35:06.968Z,6.60
2022-12-25T17:37:35.112Z,7.07
2022-12-25T17:40:04.731Z,6.53
2022-12-25T17:42:32.968Z,6.30
2022-12-25T17:45:00.969Z,8.20
2022-12-25T17:47:31.168Z,7.27
2022-12-25T17:49:59.246Z,7.10
2022-12-25T17:52:27.289Z,7.40
2022-12-25T17:54:55.335Z,6.57
2022-12-25T17:57:24.671Z,6.27
2022-12-25T17:59:52.694Z,6.87
2022-12-25T18:02:20.963Z,7.53
2022-12-25T18:04:49.296Z,7.80
2022-12-25T18:07:17.586Z,8.50
2022-12-25T18:09:45.698Z,7.90
2022-12-25T18:12:13.734Z,9.20
2022-12-25T18:14:43.227Z,9.07
2022-12-25T18:17:11.266Z,8.40
2022-12-25T18:19:39.420Z,7.47
2022-12-25T18:22:07.479Z,7.23
2022-12-25T18:24:35.593Z,7.63
2022-12-25T18:27:03.678Z,7.73
2022-12-25T18:29:31.746Z,8.40
2022-12-25T18:32:01.308Z,8.17
2022-12-25T18:34:29.800Z,8.73
2022-12-25T18:37:03.219Z,9.47
2022-12-25T18:39:31.684Z,9.30
2022-12-25T18:42:17.831Z,9.03
2022-12-25T18:44:46.008Z,9.73
2022-12-25T18:47:15.577Z,10.73
2022-12-25T18:49:43.661Z,9.47
2022-12-25T18:52:47.808Z,10.50
2022-12-25T18:54:59.950Z,10.13
2022-12-25T18:57:27.956Z,9.53
2022-12-25T18:59:55.997Z,9.43
2022-12-25T19:02:25.634Z,9.47
2022-12-25T19:04:53.919Z,10.33
2022-12-25T19:07:24.592Z,10.20
2022-12-25T19:09:52.681Z,9.40
2022-12-25T19:12:20.822Z,8.83
2022-12-25T19:14:48.920Z,9.07
2022-12-25T19:17:17.184Z,9.30
2022-12-25T19:19:46.806Z,9.67
2022-12-25T19:22:14.982Z,9.03
2022-12-25T19:24:43.228Z,9.20
2022-12-25T19:27:11.233Z,10.07
2022-12-25T19:29:39.356Z,9.67
2022-12-25T19:32:07.481Z,9.70
2022-12-25T19:34:37.674Z,9.90
2022-12-25T19:37:07.364Z,10.50
2022-12-25T19:39:39.864Z,10.60
2022-12-25T19:42:07.882Z,10.03
2022-12-25T19:44:35.979Z,9.67
2022-12-25T19:47:04.083Z,10.27
2022-12-25T19:49:32.178Z,10.43
2022-12-25T19:52:00.356Z,9.83
2022-12-25T19:54:29.835Z,11.80
2022-12-25T19:56:58.002Z,10.70
2022-12-25T19:59:26.003Z,10.40
2022-12-25T20:01:55.516Z,11.30
2022-12-25T20:04:23.727Z,10.07
2022-12-25T20:06:51.770Z,9.27
2022-12-25T20:09:21.725Z,9.77
2022-12-25T20:11:51.362Z,8.93
2022-12-25T20:14:19.636Z,9.97
2022-12-25T20:16:47.772Z,9.63
2022-12-25T20:19:16.399Z,8.80
2022-12-25T20:21:44.438Z,8.50
2022-12-25T20:24:12.614Z,8.47
2022-12-25T20:26:41.106Z,8.23
2022-12-25T20:29:10.584Z,8.53
2022-12-25T20:31:39.159Z,8.00
2022-12-25T20:34:10.213Z,7.53
2022-12-25T20:36:38.650Z,7.13
2022-12-25T20:39:09.670Z,6.33
2022-12-25T20:41:38.537Z,6.00
2022-12-25T20:44:08.517Z,6.57
2022-12-25T20:46:38.773Z,6.63
2022-12-25T20:49:07.099Z,7.60
2022-12-25T20:51:35.646Z,8.20
2022-12-25T20:54:08.300Z,7.43
2022-12-25T20:56:37.763Z,7.70
2022-12-25T20:59:05.829Z,8.00
2022-12-25T21:01:33.969Z,8.17
2022-12-25T21:04:03.687Z,7.67
2022-12-25T21:06:31.871Z,7.57
2022-12-25T21:08:59.964Z,8.07
2022-12-25T21:11:30.447Z,7.60
2022-12-25T21:13:58.987Z,7.80
2022-12-25T21:16:29.989Z,8.20
2022-12-25T21:18:58.716Z,9.13
2022-12-25T21:21:28.223Z,8.07
2022-12-25T21:23:57.020Z,7.07
2022-12-25T21:26:27.882Z,7.57
2022-12-25T21:28:57.382Z,7.40
2022-12-25T21:31:26.105Z,7.20
2022-12-25T21:33:54.731Z,7.10
2022-12-25T21:36:26.990Z,7.43
2022-12-25T21:38:58.555Z,8.47
2022-12-25T21:41:27.505Z,7.13
2022-12-25T21:43:55.944Z,6.77
2022-12-25T21:46:24.996Z,7.10
2022-12-25T21:48:53.536Z,8.40
2022-12-25T21:51:41.420Z,7.80
2022-12-25T21:54:11.920Z,7.10
2022-12-25T21:56:44.869Z,8.30
2022-12-25T21:59:15.326Z,8.63
2022-12-25T22:01:43.880Z,8.93
2022-12-25T22:04:13.323Z,8.25
2022-12-25T22:06:59.167Z,7.83
2022-12-25T22:09:28.804Z,7.40
2022-12-25T22:12:16.271Z,8.13
2022-12-25T22:14:54.700Z,8.90
2022-12-25T22:17:44.940Z,8.87
2022-12-25T22:20:15.042Z,8.93
2022-12-25T22:22:43.498Z,8.70
2022-12-25T22:25:13.795Z,8.00
2022-12-25T22:27:43.223Z,7.73
2022-12-25T22:30:13.729Z,8.77
2022-12-25T22:32:42.177Z,8.93
2022-12-25T22:35:12.222Z,8.93
2022-12-25T22:37:41.020Z,8.23
2022-12-25T22:40:11.062Z,7.95
2022-12-25T22:42:40.578Z,8.57
2022-12-25T22:45:09.877Z,8.80
2022-12-25T22:47:37.933Z,7.68
2022-12-25T22:50:06.870Z,7.10
2022-12-25T22:52:35.019Z,8.00
2022-12-25T22:55:03.560Z,8.25
2022-12-25T22:57:31.620Z,7.77
2022-12-25T23:00:01.571Z,7.63
2022-12-25T23:02:29.800Z,7.90
2022-12-25T23:04:57.993Z,7.83
2022-12-25T23:07:26.024Z,7.73
2022-12-25T23:09:54.237Z,8.17
2022-12-25T23:12:39.821Z,8.75
2022-12-25T23:15:10.358Z,8.50
2022-12-25T23:17:55.935Z,8.73
2022-12-25T23:20:41.544Z,10.43
2022-12-25T23:23:31.075Z,11.02
2022-12-25T23:26:10.949Z,10.05
2022-12-25T23:28:58.671Z,8.55
2022-12-25T23:31:30.748Z,8.18
2022-12-25T23:33:59.340Z,9.43
2022-12-25T23:36:28.394Z,7.85
2022-12-25T23:38:56.571Z,8.77
2022-12-25T23:41:24.668Z,7.60
2022-12-25T23:43:52.712Z,7.47
2022-12-25T23:46:20.839Z,8.10
2022-12-25T23:48:50.894Z,8.00
2022-12-25T23:51:18.943Z,6.90
2022-12-25T23:53:46.976Z,7.93
2022-12-25T23:56:15.032Z,6.75
2022-12-25T23:58:45.239Z,7.75
